createdAt,value
2018-09-25T00:00:39.462Z,23.00
2018-09-25T00:03:12.750Z,23.00
2018-09-25T00:05:46.284Z,23.00
2018-09-25T00:08:19.781Z,23.00
2018-09-25T00:10:53.425Z,23.00
2018-09-25T00:13:27.004Z,23.00
2018-09-25T00:16:00.627Z,23.00
2018-09-25T00:18:34.276Z,23.00
2018-09-25T00:21:07.805Z,23.00
2018-09-25T00:23:41.363Z,23.00
2018-09-25T00:26:14.993Z,23.00
2018-09-25T00:28:48.472Z,23.00
2018-09-25T00:31:22.176Z,22.90
2018-09-25T00:33:55.845Z,22.90
2018-09-25T00:36:29.473Z,22.90
2018-09-25T00:39:03.093Z,22.90
2018-09-25T00:41:36.584Z,22.90
2018-09-25T00:44:10.129Z,22.90
2018-09-25T00:46:43.626Z,22.90
2018-09-25T00:49:17.320Z,22.90
2018-09-25T00:51:50.893Z,22.90
2018-09-25T00:54:24.636Z,22.90
2018-09-25T00:56:58.271Z,22.90
2018-09-25T00:59:31.831Z,22.90
2018-09-25T01:02:05.443Z,22.90
2018-09-25T01:04:39.089Z,22.90
2018-09-25T01:07:12.724Z,22.90
2018-09-25T01:09:46.539Z,22.90
2018-09-25T01:12:20.195Z,22.90
2018-09-25T01:14:53.862Z,22.90
2018-09-25T01:17:27.560Z,22.90
2018-09-25T01:20:01.141Z,22.90
2018-09-25T01:22:34.889Z,22.90
2018-09-25T01:25:08.603Z,22.90
2018-09-25T01:27:42.101Z,22.90
2018-09-25T01:30:15.753Z,22.90
2018-09-25T01:32:49.369Z,22.90
2018-09-25T01:35:23.069Z,22.90
2018-09-25T01:37:56.718Z,22.90
2018-09-25T01:40:30.345Z,22.80
2018-09-25T01:43:04.064Z,22.80
2018-09-25T01:45:37.697Z,22.90
2018-09-25T01:48:11.219Z,22.80
2018-09-25T01:50:44.872Z,22.80
2018-09-25T01:53:18.476Z,22.80
2018-09-25T01:55:52.084Z,22.80
2018-09-25T01:58:25.753Z,22.80
2018-09-25T02:00:59.310Z,22.80
2018-09-25T02:03:32.897Z,22.80
2018-09-25T02:06:06.369Z,22.80
2018-09-25T02:08:39.833Z,22.80
2018-09-25T02:11:13.344Z,22.80
2018-09-25T02:13:46.889Z,22.80
2018-09-25T02:16:20.401Z,22.80
2018-09-25T02:18:54.091Z,22.80
2018-09-25T02:21:27.630Z,22.80
2018-09-25T02:24:01.143Z,22.80
2018-09-25T02:26:34.666Z,22.80
2018-09-25T02:29:08.316Z,22.80
2018-09-25T02:31:42.041Z,22.80
2018-09-25T02:34:15.721Z,22.80
2018-09-25T02:36:49.361Z,22.80
2018-09-25T02:39:22.872Z,22.80
2018-09-25T02:41:56.511Z,22.80
2018-09-25T02:44:30.191Z,22.80
2018-09-25T02:47:03.857Z,22.80
2018-09-25T02:49:37.528Z,22.80
2018-09-25T02:52:11.070Z,22.80
2018-09-25T02:54:44.614Z,22.80
2018-09-25T02:57:18.181Z,22.80
2018-09-25T02:59:51.753Z,22.80
2018-09-25T03:02:25.226Z,22.80
2018-09-25T03:04:58.747Z,22.70
2018-09-25T03:07:32.290Z,22.80
2018-09-25T03:10:06.025Z,22.70
2018-09-25T03:12:39.736Z,22.70
2018-09-25T03:15:13.456Z,22.70
2018-09-25T03:17:47.005Z,22.70
2018-09-25T03:20:20.644Z,22.70
2018-09-25T03:22:54.338Z,22.70
2018-09-25T03:25:28.139Z,22.70
2018-09-25T03:28:01.745Z,22.70
2018-09-25T03:30:35.303Z,22.70
2018-09-25T03:33:08.831Z,22.70
2018-09-25T03:35:42.341Z,22.70
2018-09-25T03:38:16.185Z,22.70
2018-09-25T03:40:49.801Z,22.70
2018-09-25T03:43:23.465Z,22.70
2018-09-25T03:45:56.972Z,22.70
2018-09-25T03:48:30.652Z,22.70
2018-09-25T03:51:04.153Z,22.70
2018-09-25T03:53:37.752Z,22.70
2018-09-25T03:56:11.387Z,22.70
2018-09-25T03:58:45.040Z,22.70
2018-09-25T04:01:18.656Z,22.70
2018-09-25T04:03:52.302Z,22.70
2018-09-25T04:06:25.840Z,22.70
2018-09-25T04:08:59.386Z,22.60
2018-09-25T04:11:32.926Z,22.70
2018-09-25T04:14:06.669Z,22.70
2018-09-25T04:16:40.182Z,22.60
2018-09-25T04:19:13.881Z,22.70
2018-09-25T04:21:47.565Z,22.60
2018-09-25T04:24:21.116Z,22.60
2018-09-25T04:26:54.820Z,22.70
2018-09-25T04:29:28.489Z,22.60
2018-09-25T04:32:01.989Z,22.60
2018-09-25T04:34:35.754Z,22.60
2018-09-25T04:37:09.331Z,22.60
2018-09-25T04:39:43.009Z,22.60
2018-09-25T04:42:16.645Z,22.60
2018-09-25T04:44:50.395Z,22.60
2018-09-25T04:47:23.971Z,22.60
2018-09-25T04:49:57.636Z,22.60
2018-09-25T04:52:31.329Z,22.60
2018-09-25T04:55:04.990Z,22.60
2018-09-25T04:57:38.460Z,22.60
2018-09-25T05:00:11.979Z,22.60
2018-09-25T05:02:45.616Z,22.60
2018-09-25T05:05:19.256Z,22.60
2018-09-25T05:07:52.913Z,22.60
2018-09-25T05:10:26.649Z,22.60
2018-09-25T05:13:00.046Z,22.50
2018-09-25T05:15:33.593Z,22.50
2018-09-25T05:18:08.186Z,22.50
2018-09-25T05:20:41.689Z,22.50
2018-09-25T05:23:15.388Z,22.50
2018-09-25T05:25:49.057Z,22.50
2018-09-25T05:28:22.800Z,22.50
2018-09-25T05:30:56.583Z,22.50
2018-09-25T05:33:30.166Z,22.50
2018-09-25T05:36:03.747Z,22.50
2018-09-25T05:38:37.450Z,22.50
2018-09-25T05:41:11.295Z,22.50
2018-09-25T05:43:44.932Z,22.50
2018-09-25T05:46:18.609Z,22.50
2018-09-25T05:48:52.479Z,22.50
2018-09-25T05:51:25.817Z,22.50
2018-09-25T05:53:59.506Z,22.50
2018-09-25T05:56:33.196Z,22.50
2018-09-25T05:59:06.833Z,22.50
2018-09-25T06:01:40.590Z,22.50
2018-09-25T06:04:14.312Z,22.40
2018-09-25T06:06:48.104Z,22.40
2018-09-25T06:09:22.258Z,22.40
2018-09-25T06:11:55.796Z,22.40
2018-09-25T06:14:29.455Z,22.40
2018-09-25T06:17:03.149Z,22.40
2018-09-25T06:19:36.924Z,22.40
2018-09-25T06:22:10.497Z,22.40
2018-09-25T06:24:44.192Z,22.40
2018-09-25T06:27:17.845Z,22.40
2018-09-25T06:29:51.526Z,22.40
2018-09-25T06:32:25.229Z,22.40
2018-09-25T06:34:59.082Z,22.40
2018-09-25T06:37:32.686Z,22.40
2018-09-25T06:40:06.509Z,22.40
2018-09-25T06:42:40.212Z,22.40
2018-09-25T06:45:13.793Z,22.40
2018-09-25T06:47:47.497Z,22.40
2018-09-25T06:50:21.081Z,22.40
2018-09-25T06:52:54.765Z,22.40
2018-09-25T06:55:28.437Z,22.40
2018-09-25T06:58:02.677Z,22.40
2018-09-25T07:00:36.390Z,22.40
2018-09-25T07:03:09.976Z,22.40
2018-09-25T07:05:43.661Z,22.40
2018-09-25T07:08:17.433Z,22.40
2018-09-25T07:10:51.000Z,22.40
2018-09-25T07:13:24.504Z,22.40
2018-09-25T07:15:58.153Z,22.40
2018-09-25T07:18:31.811Z,22.40
2018-09-25T07:21:05.538Z,22.40
2018-09-25T07:23:39.210Z,22.40
2018-09-25T07:26:13.169Z,22.40
2018-09-25T07:28:46.826Z,22.40
2018-09-25T07:31:27.377Z,22.40
2018-09-25T07:34:01.105Z,22.40
2018-09-25T07:36:34.787Z,22.50
2018-09-25T07:39:08.448Z,22.40
2018-09-25T07:41:42.215Z,22.50
2018-09-25T07:44:15.960Z,22.40
2018-09-25T07:46:49.602Z,22.40
2018-09-25T07:49:23.261Z,22.40
2018-09-25T07:51:56.805Z,22.40
2018-09-25T07:54:30.456Z,22.40
2018-09-25T07:57:04.004Z,22.50
2018-09-25T07:59:37.705Z,22.50
2018-09-25T08:02:11.373Z,22.40
2018-09-25T08:04:45.109Z,22.50
2018-09-25T08:07:18.624Z,22.50
2018-09-25T08:09:52.305Z,22.50
2018-09-25T08:12:26.066Z,22.50
2018-09-25T08:14:59.825Z,22.50
2018-09-25T08:17:33.500Z,22.50
2018-09-25T08:20:07.130Z,22.50
2018-09-25T08:22:40.746Z,22.50
2018-09-25T08:25:14.287Z,22.50
2018-09-25T08:27:48.097Z,22.50
2018-09-25T08:30:21.707Z,22.50
2018-09-25T08:32:55.208Z,22.50
2018-09-25T08:35:28.722Z,22.50
2018-09-25T08:38:02.360Z,22.50
2018-09-25T08:40:35.945Z,22.50
2018-09-25T08:43:09.392Z,22.50
2018-09-25T08:45:43.167Z,22.50
2018-09-25T08:48:16.758Z,22.50
2018-09-25T08:50:50.363Z,22.50
2018-09-25T08:53:24.052Z,22.50
2018-09-25T08:55:57.711Z,22.60
2018-09-25T08:58:31.417Z,22.60
2018-09-25T09:01:04.957Z,22.60
2018-09-25T09:03:38.473Z,22.60
2018-09-25T09:06:12.132Z,22.60
2018-09-25T09:08:45.794Z,22.60
2018-09-25T09:11:19.565Z,22.60
2018-09-25T09:13:53.167Z,22.70
2018-09-25T09:16:26.765Z,22.70
2018-09-25T09:19:00.317Z,22.70
2018-09-25T09:21:33.844Z,22.70
2018-09-25T09:24:07.338Z,22.70
2018-09-25T09:26:41.021Z,22.70
2018-09-25T09:29:14.673Z,22.80
2018-09-25T09:31:48.314Z,22.80
2018-09-25T09:34:21.977Z,22.80
2018-09-25T09:36:55.702Z,22.80
2018-09-25T09:39:29.507Z,22.80
2018-09-25T09:42:03.414Z,22.80
2018-09-25T09:44:37.095Z,22.80
2018-09-25T09:47:11.092Z,22.90
2018-09-25T09:49:44.774Z,22.90
2018-09-25T09:52:18.348Z,22.90
2018-09-25T09:54:51.913Z,22.90
2018-09-25T09:57:25.381Z,23.00
2018-09-25T09:59:58.937Z,23.00
2018-09-25T10:02:32.409Z,23.00
2018-09-25T10:05:06.133Z,23.00
2018-09-25T10:07:39.909Z,23.00
2018-09-25T10:10:13.557Z,23.00
2018-09-25T10:12:47.848Z,23.00
2018-09-25T10:15:21.412Z,23.00
2018-09-25T10:17:54.929Z,23.10
2018-09-25T10:20:28.542Z,23.10
2018-09-25T10:23:02.108Z,23.10
2018-09-25T10:25:35.653Z,23.10
2018-09-25T10:28:09.416Z,23.20
2018-09-25T10:30:43.073Z,23.20
2018-09-25T10:33:16.531Z,23.20
2018-09-25T10:35:50.300Z,23.20
2018-09-25T10:38:23.961Z,23.20
2018-09-25T10:40:57.706Z,23.20
2018-09-25T10:43:31.413Z,23.20
2018-09-25T10:46:04.828Z,23.20
2018-09-25T10:48:38.345Z,23.20
2018-09-25T10:51:12.069Z,23.20
2018-09-25T10:53:45.894Z,23.20
2018-09-25T10:56:19.592Z,23.20
2018-09-25T10:58:53.033Z,23.30
2018-09-25T11:01:26.728Z,23.30
2018-09-25T11:04:00.425Z,23.30
2018-09-25T11:06:33.923Z,23.30
2018-09-25T11:09:07.635Z,23.30
2018-09-25T11:11:41.270Z,23.30
2018-09-25T11:14:14.865Z,23.30
2018-09-25T11:16:48.584Z,23.30
2018-09-25T11:19:22.215Z,23.30
2018-09-25T11:21:55.739Z,23.30
2018-09-25T11:24:29.341Z,23.30
2018-09-25T11:27:03.049Z,23.40
2018-09-25T11:29:36.622Z,23.30
2018-09-25T11:32:10.861Z,23.30
2018-09-25T11:34:44.444Z,23.40
2018-09-25T11:37:18.142Z,23.30
2018-09-25T11:39:51.878Z,23.30
2018-09-25T11:42:25.455Z,23.30
2018-09-25T11:44:59.156Z,23.30
2018-09-25T11:47:32.593Z,23.30
2018-09-25T11:50:06.277Z,23.30
2018-09-25T11:52:39.892Z,23.30
2018-09-25T11:55:13.585Z,23.30
2018-09-25T11:57:47.127Z,23.30
2018-09-25T12:00:20.752Z,23.30
2018-09-25T12:02:54.520Z,23.30
2018-09-25T12:05:28.069Z,23.30
2018-09-25T12:08:01.398Z,23.30
2018-09-25T12:10:35.016Z,23.30
2018-09-25T12:13:08.689Z,23.30
2018-09-25T12:15:42.548Z,23.30
2018-09-25T12:18:16.017Z,23.30
2018-09-25T12:20:49.664Z,23.30
2018-09-25T12:23:23.441Z,23.40
2018-09-25T12:25:56.960Z,23.40
2018-09-25T12:28:30.680Z,23.40
2018-09-25T12:31:04.432Z,23.30
2018-09-25T12:33:38.143Z,23.40
2018-09-25T12:36:11.841Z,23.30
2018-09-25T12:38:45.518Z,23.40
2018-09-25T12:41:19.224Z,23.40
2018-09-25T12:43:52.948Z,23.40
2018-09-25T12:46:26.643Z,23.40
2018-09-25T12:49:00.335Z,23.40
2018-09-25T12:51:33.802Z,23.40
2018-09-25T12:54:07.306Z,23.50
2018-09-25T13:03:51.886Z,23.50
2018-09-25T13:06:25.602Z,23.40
2018-09-25T13:08:59.194Z,23.40
2018-09-25T13:11:32.656Z,23.40
2018-09-25T13:14:06.424Z,23.40
2018-09-25T13:16:40.095Z,23.40
2018-09-25T13:19:13.653Z,23.40
2018-09-25T13:21:47.218Z,23.40
2018-09-25T13:24:20.965Z,23.40
2018-09-25T13:26:54.609Z,23.40
2018-09-25T13:29:28.281Z,23.40
2018-09-25T13:32:01.870Z,23.40
2018-09-25T13:34:35.366Z,23.30
2018-09-25T13:37:09.212Z,23.30
2018-09-25T13:39:42.813Z,23.30
2018-09-25T13:42:16.581Z,23.30
2018-09-25T13:44:50.279Z,23.30
2018-09-25T13:47:23.801Z,23.30
2018-09-25T13:49:57.453Z,23.30
2018-09-25T13:52:30.982Z,23.30
2018-09-25T13:55:04.475Z,23.30
2018-09-25T13:57:38.237Z,23.30
2018-09-25T14:00:11.942Z,23.30
2018-09-25T14:02:45.741Z,23.30
2018-09-25T14:05:19.485Z,23.30
2018-09-25T14:07:53.182Z,23.20
2018-09-25T14:10:26.881Z,23.30
2018-09-25T14:13:00.424Z,23.30
2018-09-25T14:15:34.050Z,23.20
2018-09-25T14:18:07.812Z,23.30
2018-09-25T14:20:41.409Z,23.20
2018-09-25T14:23:15.106Z,23.20
2018-09-25T14:25:48.724Z,23.20
2018-09-25T14:28:22.285Z,23.20
2018-09-25T14:30:55.909Z,23.20
2018-09-25T14:33:29.500Z,23.20
2018-09-25T14:36:03.331Z,23.20
2018-09-25T14:38:36.885Z,23.20
2018-09-25T14:41:10.532Z,23.20
2018-09-25T14:43:44.304Z,23.20
2018-09-25T14:46:17.857Z,23.20
2018-09-25T14:48:51.557Z,23.20
2018-09-25T14:51:25.144Z,23.20
2018-09-25T14:53:58.981Z,23.20
2018-09-25T14:56:32.838Z,23.20
2018-09-25T14:59:06.549Z,23.20
2018-09-25T15:01:40.244Z,23.20
2018-09-25T15:04:17.260Z,23.20
2018-09-25T15:06:51.298Z,23.20
2018-09-25T15:09:24.931Z,23.20
2018-09-25T15:11:58.474Z,23.20
2018-09-25T15:14:32.141Z,23.20
2018-09-25T15:17:05.817Z,23.20
2018-09-25T15:19:39.595Z,23.20
2018-09-25T15:22:13.647Z,23.20
2018-09-25T15:24:47.076Z,23.20
2018-09-25T15:27:20.748Z,23.20
2018-09-25T15:29:54.373Z,23.20
2018-09-25T15:32:28.005Z,23.20
2018-09-25T15:35:01.635Z,23.20
2018-09-25T15:37:35.380Z,23.20
2018-09-25T15:40:09.128Z,23.20
2018-09-25T15:42:42.774Z,23.20
2018-09-25T15:45:16.545Z,23.20
2018-09-25T15:47:50.364Z,23.10
2018-09-25T15:50:24.077Z,23.10
2018-09-25T15:52:57.785Z,23.10
2018-09-25T15:55:31.358Z,23.10
2018-09-25T15:58:05.020Z,23.10
2018-09-25T16:00:38.710Z,23.10
2018-09-25T16:03:12.209Z,23.10
2018-09-25T16:05:45.984Z,23.10
2018-09-25T16:08:19.447Z,23.10
2018-09-25T16:10:53.197Z,23.10
2018-09-25T16:13:26.884Z,23.10
2018-09-25T16:16:00.664Z,23.10
2018-09-25T16:18:34.334Z,23.10
2018-09-25T16:21:07.793Z,23.00
2018-09-25T16:23:41.470Z,23.10
2018-09-25T16:26:15.152Z,23.00
2018-09-25T16:28:48.789Z,23.00
2018-09-25T16:31:22.344Z,23.00
2018-09-25T16:33:56.130Z,23.00
2018-09-25T16:36:29.670Z,23.00
2018-09-25T16:39:03.349Z,23.00
2018-09-25T16:41:36.962Z,23.00
2018-09-25T16:44:10.403Z,23.00
2018-09-25T16:46:43.929Z,23.00
2018-09-25T16:49:17.461Z,23.00
2018-09-25T16:51:50.964Z,22.90
2018-09-25T16:54:24.564Z,22.90
2018-09-25T16:56:58.252Z,23.00
2018-09-25T16:59:31.992Z,22.90
2018-09-25T17:02:05.525Z,22.90
2018-09-25T17:04:39.340Z,22.90
2018-09-25T17:07:12.892Z,22.90
2018-09-25T17:09:46.473Z,22.90
2018-09-25T17:12:20.484Z,22.90
2018-09-25T17:14:54.113Z,22.80
2018-09-25T17:17:28.448Z,22.90
2018-09-25T17:20:02.061Z,22.90
2018-09-25T17:22:35.817Z,22.90
2018-09-25T17:25:09.628Z,22.90
2018-09-25T17:27:43.325Z,22.80
2018-09-25T17:30:16.953Z,22.80
2018-09-25T17:32:50.517Z,22.80
2018-09-25T17:35:24.273Z,22.80
2018-09-25T17:37:57.958Z,22.80
2018-09-25T17:40:31.567Z,22.80
2018-09-25T17:43:05.183Z,22.80
2018-09-25T17:45:38.792Z,22.80
2018-09-25T17:48:12.559Z,22.80
2018-09-25T17:50:46.235Z,22.80
2018-09-25T17:53:19.812Z,22.80
2018-09-25T17:55:53.405Z,22.80
2018-09-25T17:58:27.067Z,22.80
2018-09-25T18:01:00.662Z,22.80
2018-09-25T18:03:34.342Z,22.80
2018-09-25T18:06:07.857Z,22.80
2018-09-25T18:08:41.436Z,22.80
2018-09-25T18:11:14.961Z,22.70
2018-09-25T18:13:48.528Z,22.80
2018-09-25T18:16:22.161Z,22.80
2018-09-25T18:18:55.737Z,22.70
2018-09-25T18:21:29.344Z,22.70
2018-09-25T18:24:02.960Z,22.70
2018-09-25T18:26:36.552Z,22.70
2018-09-25T18:29:10.233Z,22.70
2018-09-25T18:31:43.858Z,22.70
2018-09-25T18:34:17.449Z,22.70
2018-09-25T18:36:51.086Z,22.70
2018-09-25T18:39:24.842Z,22.70
2018-09-25T18:41:58.393Z,22.70
2018-09-25T18:44:32.082Z,22.70
2018-09-25T18:47:06.001Z,22.70
2018-09-25T18:49:39.682Z,22.70
2018-09-25T18:52:13.299Z,22.70
2018-09-25T18:54:47.025Z,22.70
2018-09-25T18:57:20.542Z,22.70
2018-09-25T18:59:53.988Z,22.70
2018-09-25T19:02:27.613Z,22.70
2018-09-25T19:05:01.233Z,22.70
2018-09-25T19:07:34.836Z,22.70
2018-09-25T19:10:08.303Z,22.70
2018-09-25T19:12:42.004Z,22.70
2018-09-25T19:15:15.460Z,22.70
2018-09-25T19:17:49.193Z,22.70
2018-09-25T19:20:22.764Z,22.70
2018-09-25T19:22:56.434Z,22.70
2018-09-25T19:25:30.197Z,22.70
2018-09-25T19:28:03.950Z,22.70
2018-09-25T19:30:37.476Z,22.70
2018-09-25T19:33:11.108Z,22.60
2018-09-25T19:35:44.762Z,22.70
2018-09-25T19:38:18.641Z,22.70
2018-09-25T19:40:52.337Z,22.70
2018-09-25T19:43:26.048Z,22.70
2018-09-25T19:45:59.745Z,22.60
2018-09-25T19:48:33.265Z,22.60
2018-09-25T19:51:06.842Z,22.60
2018-09-25T19:53:40.443Z,22.60
2018-09-25T19:56:13.995Z,22.60
2018-09-25T19:58:47.442Z,22.60
2018-09-25T20:01:20.937Z,22.60
2018-09-25T20:03:54.440Z,22.60
2018-09-25T20:06:28.027Z,22.60
2018-09-25T20:09:01.448Z,22.60
2018-09-25T20:11:35.001Z,22.60
2018-09-25T20:14:08.657Z,22.60
2018-09-25T20:16:42.387Z,22.60
2018-09-25T20:19:15.909Z,22.60
2018-09-25T20:21:49.507Z,22.60
2018-09-25T20:24:23.181Z,22.60
2018-09-25T20:26:56.753Z,22.60
2018-09-25T20:29:30.657Z,22.60
2018-09-25T20:32:04.116Z,22.60
2018-09-25T20:34:37.837Z,22.60
2018-09-25T20:37:11.804Z,22.60
2018-09-25T20:39:45.727Z,22.60
2018-09-25T20:42:19.308Z,22.50
2018-09-25T20:44:52.981Z,22.50
2018-09-25T20:47:26.489Z,22.50
2018-09-25T20:50:00.200Z,22.50
2018-09-25T20:52:33.785Z,22.50
2018-09-25T20:55:07.425Z,22.50
2018-09-25T20:57:41.109Z,22.50
2018-09-25T21:00:14.649Z,22.50
2018-09-25T21:02:48.328Z,22.50
2018-09-25T21:05:22.072Z,22.50
2018-09-25T21:07:55.706Z,22.50
2018-09-25T21:10:29.407Z,22.50
2018-09-25T21:13:02.968Z,22.50
2018-09-25T21:15:36.618Z,22.50
2018-09-25T21:18:10.271Z,22.50
2018-09-25T21:20:43.936Z,22.50
2018-09-25T21:23:17.468Z,22.50
2018-09-25T21:25:50.956Z,22.50
2018-09-25T21:28:24.490Z,22.50
2018-09-25T21:30:58.248Z,22.50
2018-09-25T21:33:31.948Z,22.50
2018-09-25T21:36:05.500Z,22.50
2018-09-25T21:38:39.245Z,22.50
2018-09-25T21:41:12.930Z,22.50
2018-09-25T21:43:46.597Z,22.50
2018-09-25T21:46:20.132Z,22.50
2018-09-25T21:48:53.885Z,22.50
2018-09-25T21:51:27.877Z,22.50
2018-09-25T21:54:01.142Z,22.50
2018-09-25T21:56:34.753Z,22.50
2018-09-25T21:59:08.265Z,22.50
2018-09-25T22:01:41.845Z,22.50
2018-09-25T22:04:15.348Z,22.50
2018-09-25T22:06:49.042Z,22.50
2018-09-25T22:09:22.569Z,22.50
2018-09-25T22:11:56.083Z,22.50
2018-09-25T22:14:29.714Z,22.50
2018-09-25T22:17:03.219Z,22.50
2018-09-25T22:19:36.869Z,22.50
2018-09-25T22:22:10.571Z,22.50
2018-09-25T22:24:44.228Z,22.50
2018-09-25T22:27:17.896Z,22.40
2018-09-25T22:29:51.455Z,22.40
2018-09-25T22:32:25.058Z,22.40
2018-09-25T22:34:58.546Z,22.40
2018-09-25T22:37:32.145Z,22.40
2018-09-25T22:40:05.774Z,22.40
2018-09-25T22:42:39.505Z,22.40
2018-09-25T22:45:13.195Z,22.40
2018-09-25T22:47:46.759Z,22.40
2018-09-25T22:50:20.297Z,22.40
2018-09-25T22:52:53.872Z,22.40
2018-09-25T22:55:27.334Z,22.40
2018-09-25T23:00:42.401Z,22.40
2018-09-25T23:03:16.006Z,22.40
2018-09-25T23:05:49.618Z,22.40
2018-09-25T23:08:23.158Z,22.40
2018-09-25T23:10:56.895Z,22.40
2018-09-25T23:13:30.477Z,22.40
2018-09-25T23:16:04.033Z,22.40
2018-09-25T23:18:37.666Z,22.40
2018-09-25T23:21:11.241Z,22.40
2018-09-25T23:23:44.890Z,22.40
2018-09-25T23:26:18.437Z,22.40
2018-09-25T23:31:24.705Z,22.40
2018-09-25T23:33:58.418Z,22.40
2018-09-25T23:36:32.097Z,22.40
2018-09-25T23:39:04.989Z,22.40
2018-09-25T23:41:37.336Z,22.40
2018-09-25T23:44:13.017Z,22.40
2018-09-25T23:46:45.680Z,22.40
2018-09-25T23:49:20.918Z,22.40
2018-09-25T23:51:53.305Z,22.40
2018-09-25T23:54:28.752Z,22.40
2018-09-25T23:57:04.017Z,22.30
2018-09-25T23:59:36.455Z,22.30
